Time;durP1;ratioP1;P1;durP2;ratioP2;P2;SDS_P1;SDS_P2;PMS_P1;PMS_P2;Temp;Humidity;BMP_temperature;BMP_pressure;BME280_temperature;BME280_humidity;BME280_pressure;Samples;Min_cycle;Max_cycle;Signal;HPM_P1;HPM_P2
2022/06/13 00:00:08;;;;;;;5.57;3.00;;;17.20;99.90;;;;;;4916878;29;20446;-73
2022/06/13 00:02:35;;;;;;;5.43;2.50;;;17.20;99.90;;;;;;4916970;29;20446;-73
2022/06/13 00:05:02;;;;;;;7.57;2.93;;;17.00;99.90;;;;;;4916829;29;20434;-73
2022/06/13 00:07:28;;;;;;;5.10;2.77;;;17.00;99.90;;;;;;4916932;29;20424;-73
2022/06/13 00:09:53;;;;;;;4.10;2.60;;;16.90;99.90;;;;;;4916965;29;20487;-72
2022/06/13 00:12:19;;;;;;;6.83;3.10;;;16.80;99.90;;;;;;4915606;29;20609;-72
2022/06/13 00:14:44;;;;;;;2.93;2.67;;;16.70;99.90;;;;;;4916868;29;20595;-72
2022/06/13 00:17:10;;;;;;;7.53;3.37;;;16.70;99.90;;;;;;4916670;29;20613;-72
2022/06/13 00:19:36;;;;;;;6.57;3.10;;;16.60;99.90;;;;;;4916876;29;20202;-71
2022/06/13 00:22:02;;;;;;;6.17;2.50;;;16.60;99.90;;;;;;4916793;29;20932;-71
2022/06/13 00:24:28;;;;;;;5.20;3.10;;;16.50;99.90;;;;;;4916631;29;20502;-72
2022/06/13 00:26:54;;;;;;;8.63;3.10;;;16.50;99.90;;;;;;4916708;29;20876;-71
2022/06/13 00:29:19;;;;;;;7.70;2.93;;;16.30;99.90;;;;;;4916674;29;20222;-71
2022/06/13 00:31:45;;;;;;;6.43;3.03;;;16.30;99.90;;;;;;4916453;29;20242;-71
2022/06/13 00:34:10;;;;;;;5.90;3.20;;;16.20;99.90;;;;;;4916592;29;20688;-71
2022/06/13 00:36:36;;;;;;;7.90;4.23;;;16.20;99.90;;;;;;4916594;29;20203;-71
2022/06/13 00:39:02;;;;;;;5.77;3.20;;;16.10;99.90;;;;;;4916552;29;20179;-71
2022/06/13 00:41:31;;;;;;;5.83;2.87;;;16.00;99.90;;;;;;4916535;29;20172;-71
2022/06/13 00:43:58;;;;;;;8.43;3.70;;;16.00;99.90;;;;;;4916538;29;20432;-71
2022/06/13 00:46:30;;;;;;;9.30;4.10;;;15.90;99.90;;;;;;4916695;29;20436;-71
2022/06/13 00:49:00;;;;;;;8.20;3.43;;;15.90;99.90;;;;;;4919025;29;20432;-71
2022/06/13 00:51:28;;;;;;;4.87;2.87;;;15.80;99.90;;;;;;4920175;29;20836;-71
2022/06/13 00:53:54;;;;;;;4.70;2.77;;;15.80;99.90;;;;;;4920126;29;20978;-71
2022/06/13 00:56:23;;;;;;;6.70;3.43;;;15.80;99.90;;;;;;4919969;29;20456;-71
2022/06/13 00:58:56;;;;;;;6.87;4.10;;;15.80;99.90;;;;;;4920024;29;20191;-72
2022/06/13 01:01:23;;;;;;;6.57;3.30;;;15.80;99.90;;;;;;4920066;29;20822;-72
2022/06/13 01:03:50;;;;;;;7.83;3.23;;;15.80;99.90;;;;;;4919983;29;20444;-72
2022/06/13 01:06:16;;;;;;;3.93;2.90;;;15.80;99.90;;;;;;4919831;29;20444;-72
2022/06/13 01:08:43;;;;;;;7.33;3.40;;;15.70;99.90;;;;;;4919871;29;20475;-71
2022/06/13 01:11:16;;;;;;;9.73;2.73;;;15.70;99.90;;;;;;4919765;29;20455;-72
2022/06/13 01:13:55;;;;;;;4.43;3.13;;;15.60;99.90;;;;;;4919799;29;20792;-71
2022/06/13 01:16:33;;;;;;;8.90;3.57;;;15.70;99.90;;;;;;4919745;29;20435;-71
2022/06/13 01:19:28;;;;;;;7.80;3.60;;;15.60;99.90;;;;;;4919737;29;20536;-71
2022/06/13 01:22:04;;;;;;;5.40;2.87;;;15.60;99.90;;;;;;4919722;29;20784;-71
2022/06/13 01:25:08;;;;;;;5.33;3.67;;;15.60;99.90;;;;;;4919538;29;20855;-70
2022/06/13 04:31:29;;;;;;;9.23;5.30;;;15.30;99.90;;;;;;5494200;23;20514;-70
2022/06/13 04:34:02;;;;;;;7.30;4.23;;;15.30;99.90;;;;;;4938611;29;20796;-73
2022/06/13 04:36:30;;;;;;;16.67;4.53;;;15.40;99.90;;;;;;4938600;29;20477;-71
2022/06/13 04:38:59;;;;;;;6.70;5.10;;;15.60;99.90;;;;;;4938508;29;20441;-71
2022/06/13 04:41:28;;;;;;;9.77;4.60;;;15.60;99.90;;;;;;4938478;29;20930;-72
2022/06/13 04:43:56;;;;;;;6.30;5.40;;;15.50;99.90;;;;;;4938349;29;20779;-71
2022/06/13 04:46:25;;;;;;;11.10;6.77;;;15.50;99.90;;;;;;4938355;29;20517;-71
2022/06/13 04:48:54;;;;;;;21.13;7.20;;;15.50;99.90;;;;;;4937609;29;20796;-72
2022/06/13 04:51:24;;;;;;;29.07;15.30;;;15.50;99.90;;;;;;4937331;29;20463;-72
2022/06/13 04:53:52;;;;;;;34.97;18.80;;;15.60;99.90;;;;;;4938151;29;20447;-71
2022/06/13 04:56:20;;;;;;;16.17;11.27;;;15.70;99.90;;;;;;4937972;29;20441;-71
2022/06/13 04:58:47;;;;;;;18.23;9.83;;;15.70;99.90;;;;;;4937999;29;20988;-71
2022/06/13 05:01:26;;;;;;;21.60;9.40;;;15.70;99.90;;;;;;4937967;29;20434;-71
2022/06/13 05:03:54;;;;;;;13.97;6.10;;;15.70;99.90;;;;;;4938013;29;20795;-71
2022/06/13 05:06:44;;;;;;;9.37;5.63;;;15.80;99.90;;;;;;4938081;29;20490;-71
2022/06/13 05:09:38;;;;;;;7.20;5.40;;;15.80;99.90;;;;;;4937751;29;20446;-71
2022/06/13 05:12:38;;;;;;;8.37;5.63;;;15.90;99.90;;;;;;4931276;29;20494;-72
2022/06/13 05:15:08;;;;;;;13.20;5.50;;;15.90;99.90;;;;;;4944805;29;20447;-72
2022/06/13 05:17:50;;;;;;;14.90;6.63;;;16.00;99.90;;;;;;4945852;28;20479;-71
2022/06/13 05:20:56;;;;;;;8.90;5.23;;;16.00;99.90;;;;;;4942650;29;20930;-72
2022/06/13 05:23:45;;;;;;;8.67;5.60;;;16.00;99.90;;;;;;4923437;28;20477;-72
2022/06/13 05:26:11;;;;;;;15.20;5.50;;;16.00;99.90;;;;;;4946545;29;20520;-72
2022/06/13 05:28:37;;;;;;;12.93;5.83;;;16.00;99.90;;;;;;4944435;29;20529;-72
2022/06/13 05:31:10;;;;;;;11.03;5.73;;;16.00;99.90;;;;;;4945975;29;20306;-72
2022/06/13 05:33:40;;;;;;;12.70;6.03;;;15.90;99.90;;;;;;4942894;29;20950;-72
2022/06/13 05:36:07;;;;;;;11.63;5.30;;;15.90;99.90;;;;;;4945314;28;20500;-72
2022/06/13 05:38:47;;;;;;;12.07;6.70;;;15.80;99.90;;;;;;4942049;29;20481;-72
2022/06/13 05:41:13;;;;;;;13.10;6.33;;;15.80;99.90;;;;;;4941989;29;20922;-71
2022/06/13 05:43:38;;;;;;;9.27;6.50;;;15.70;99.90;;;;;;4945803;29;20464;-72
2022/06/13 05:46:06;;;;;;;10.73;6.13;;;15.70;99.90;;;;;;4945998;29;20631;-72
2022/06/13 05:48:31;;;;;;;9.30;5.83;;;15.70;99.90;;;;;;4944307;28;20171;-72
2022/06/13 05:50:57;;;;;;;12.57;6.60;;;15.70;99.90;;;;;;4946628;29;20755;-72
2022/06/13 05:53:24;;;;;;;9.20;5.60;;;15.70;99.90;;;;;;4946556;29;20182;-72
2022/06/13 05:55:52;;;;;;;14.47;7.10;;;15.70;99.90;;;;;;4945121;28;20199;-72
2022/06/13 05:58:19;;;;;;;16.43;6.83;;;15.70;99.90;;;;;;4946565;28;20477;-72
2022/06/13 06:00:47;;;;;;;12.00;6.27;;;15.70;99.90;;;;;;4942140;29;20522;-72
2022/06/13 06:03:12;;;;;;;9.10;6.60;;;15.70;99.90;;;;;;4936853;29;20483;-73
2022/06/13 06:05:39;;;;;;;9.77;6.20;;;15.70;99.90;;;;;;4937433;29;20431;-72
2022/06/13 06:08:12;;;;;;;11.43;5.83;;;15.60;99.90;;;;;;4946598;29;20247;-73
2022/06/13 06:10:37;;;;;;;11.00;6.07;;;15.60;99.90;;;;;;4939997;29;20427;-73
2022/06/13 06:13:03;;;;;;;11.20;6.80;;;15.60;99.90;;;;;;4937073;29;20439;-73
2022/06/13 06:15:29;;;;;;;10.47;6.30;;;15.60;99.90;;;;;;4946564;29;20686;-74
2022/06/13 06:17:55;;;;;;;6.97;5.70;;;15.60;99.90;;;;;;4945742;29;20483;-74
2022/06/13 06:20:22;;;;;;;21.67;7.13;;;15.70;99.90;;;;;;4946787;29;20179;-74
2022/06/13 06:22:48;;;;;;;10.50;6.67;;;15.60;99.90;;;;;;4946029;29;20205;-73
2022/06/13 06:25:13;;;;;;;12.90;6.77;;;15.60;99.90;;;;;;4944576;29;20435;-72
2022/06/13 06:27:39;;;;;;;12.47;6.80;;;15.70;99.90;;;;;;4942293;29;20179;-72
2022/06/13 06:30:06;;;;;;;8.73;6.10;;;15.70;99.90;;;;;;4944568;29;20261;-72
2022/06/13 06:32:32;;;;;;;18.03;6.97;;;15.80;99.90;;;;;;4946135;29;20534;-72
2022/06/13 06:34:57;;;;;;;9.60;6.60;;;15.80;99.90;;;;;;4944128;28;20477;-72
2022/06/13 06:37:23;;;;;;;19.77;7.57;;;15.80;99.90;;;;;;4940441;29;20470;-73
2022/06/13 06:39:49;;;;;;;12.37;7.10;;;15.80;99.90;;;;;;4944878;29;20232;-73
2022/06/13 06:42:14;;;;;;;13.20;7.63;;;15.90;99.90;;;;;;4945817;29;20222;-73
2022/06/13 06:44:40;;;;;;;12.73;7.30;;;16.00;99.90;;;;;;4949730;29;20555;-73
2022/06/13 06:47:06;;;;;;;16.00;7.60;;;16.00;99.90;;;;;;4954363;28;20174;-73
2022/06/13 06:49:34;;;;;;;13.40;8.43;;;16.10;99.90;;;;;;4955188;28;20237;-73
2022/06/13 06:52:01;;;;;;;12.97;7.93;;;16.10;99.90;;;;;;4956001;28;20434;-72
2022/06/13 06:59:55;;;;;;;14.93;8.70;;;16.20;99.90;;;;;;4956329;29;20453;-73
2022/06/13 07:02:26;;;;;;;14.10;7.80;;;16.20;99.90;;;;;;4956292;28;20426;-73
2022/06/13 07:04:53;;;;;;;12.33;8.23;;;16.30;99.90;;;;;;4956021;28;20171;-73
2022/06/13 07:07:19;;;;;;;13.13;8.80;;;16.40;99.90;;;;;;4955992;28;20493;-73
2022/06/13 07:09:45;;;;;;;11.43;7.63;;;16.50;99.90;;;;;;4955960;28;20430;-73
2022/06/13 07:12:11;;;;;;;14.97;7.70;;;16.50;99.90;;;;;;4955859;29;20964;-73
2022/06/13 07:14:37;;;;;;;15.87;7.77;;;16.70;99.90;;;;;;4955857;28;20559;-73
2022/06/13 07:17:05;;;;;;;10.33;7.47;;;16.90;99.90;;;;;;4955682;29;20466;-73
2022/06/13 07:19:30;;;;;;;21.77;9.30;;;17.00;99.90;;;;;;4955955;28;20238;-73
2022/06/13 07:21:56;;;;;;;14.13;8.47;;;17.00;99.90;;;;;;4955730;29;20426;-73
2022/06/13 07:24:23;;;;;;;16.53;7.80;;;17.10;99.90;;;;;;4955774;29;20580;-72
2022/06/13 07:26:49;;;;;;;16.10;8.13;;;17.10;99.90;;;;;;4955745;28;20187;-73
2022/06/13 07:29:18;;;;;;;15.93;9.70;;;17.10;99.90;;;;;;4955588;28;20430;-72
2022/06/13 07:31:49;;;;;;;20.20;7.77;;;17.10;99.90;;;;;;4954854;28;21011;-73
2022/06/13 07:34:21;;;;;;;16.60;8.07;;;17.10;99.90;;;;;;4955717;28;20422;-73
2022/06/13 07:36:50;;;;;;;12.73;7.20;;;17.10;99.90;;;;;;4955536;28;20846;-73
2022/06/13 07:39:16;;;;;;;13.83;8.57;;;17.10;99.90;;;;;;4955607;28;20438;-73
2022/06/13 07:41:43;;;;;;;11.33;7.37;;;17.20;99.90;;;;;;4955579;28;20426;-72
2022/06/13 07:44:48;;;;;;;15.00;8.10;;;17.10;99.90;;;;;;4955566;28;20218;-73
2022/06/13 07:47:20;;;;;;;14.73;7.50;;;17.20;99.90;;;;;;4896459;29;20483;-72
2022/06/13 07:49:46;;;;;;;16.13;7.70;;;17.20;99.90;;;;;;4945799;28;20513;-73
2022/06/13 07:52:11;;;;;;;14.50;8.90;;;17.30;99.90;;;;;;4955324;29;20979;-73
2022/06/13 07:54:37;;;;;;;18.17;7.60;;;17.30;99.90;;;;;;4956352;29;20213;-72
2022/06/13 07:57:03;;;;;;;15.77;9.40;;;17.20;99.90;;;;;;4954408;28;20313;-72
2022/06/13 07:59:30;;;;;;;18.60;10.47;;;17.20;99.90;;;;;;4955084;28;20185;-72
2022/06/13 08:01:57;;;;;;;15.33;9.30;;;17.30;99.90;;;;;;4955149;28;20824;-73
2022/06/13 08:04:23;;;;;;;12.77;8.93;;;17.30;99.90;;;;;;4946438;28;20431;-72
2022/06/13 08:06:49;;;;;;;17.97;10.93;;;17.30;99.90;;;;;;4943989;28;20464;-72
2022/06/13 08:09:15;;;;;;;20.33;11.57;;;17.40;99.90;;;;;;4945897;28;20864;-73
2022/06/13 08:11:45;;;;;;;20.83;12.30;;;17.40;99.90;;;;;;4943582;29;20187;-73
2022/06/13 08:14:11;;;;;;;17.03;11.40;;;17.40;99.90;;;;;;4943742;28;20187;-73
2022/06/13 08:16:37;;;;;;;18.40;10.37;;;17.50;99.90;;;;;;4938862;29;20443;-73
2022/06/13 08:19:04;;;;;;;15.30;12.77;;;17.50;99.90;;;;;;4945024;29;20462;-74
2022/06/13 08:21:31;;;;;;;20.60;13.20;;;17.50;99.90;;;;;;4945648;29;20430;-73
2022/06/13 08:23:57;;;;;;;19.00;12.23;;;17.70;99.90;;;;;;4941554;29;20482;-74
2022/06/13 08:26:23;;;;;;;19.90;13.00;;;17.80;99.90;;;;;;4944226;28;21052;-73
2022/06/13 08:28:48;;;;;;;19.70;13.10;;;17.90;99.90;;;;;;4942882;29;20179;-72
2022/06/13 08:31:17;;;;;;;16.03;11.70;;;17.90;99.90;;;;;;4943954;28;20225;-74
2022/06/13 08:33:43;;;;;;;19.63;11.10;;;17.90;99.90;;;;;;4944897;29;20206;-74
2022/06/13 08:36:09;;;;;;;18.17;10.80;;;18.10;99.90;;;;;;4942822;28;20434;-74
2022/06/13 08:38:35;;;;;;;17.53;10.83;;;18.00;99.90;;;;;;4944030;28;20884;-74
2022/06/13 08:41:10;;;;;;;16.20;10.93;;;18.00;99.90;;;;;;4943175;29;20930;-74
2022/06/13 08:43:56;;;;;;;20.27;10.77;;;18.10;99.90;;;;;;4942103;29;20504;-73
2022/06/13 08:46:28;;;;;;;15.10;10.70;;;18.20;99.90;;;;;;4943563;29;20427;-73
2022/06/13 08:49:22;;;;;;;18.10;11.37;;;18.20;99.90;;;;;;4941450;29;20427;-73
2022/06/13 08:52:01;;;;;;;19.60;10.80;;;18.30;99.90;;;;;;4945368;29;20783;-73
2022/06/13 08:54:42;;;;;;;16.87;11.53;;;18.30;99.90;;;;;;4943161;28;20437;-73
2022/06/13 08:57:10;;;;;;;19.20;12.17;;;18.30;99.90;;;;;;4942529;28;20893;-73
2022/06/13 08:59:45;;;;;;;20.37;12.33;;;18.30;99.90;;;;;;4943732;28;20458;-73
2022/06/13 09:02:15;;;;;;;23.13;11.87;;;18.30;99.90;;;;;;4940466;29;20493;-73
2022/06/13 09:04:50;;;;;;;16.40;12.50;;;18.40;99.90;;;;;;4939101;28;20790;-74
2022/06/13 09:07:34;;;;;;;17.83;12.67;;;18.40;99.90;;;;;;4936693;29;20454;-72
2022/06/13 09:10:06;;;;;;;21.30;14.10;;;18.30;99.90;;;;;;4947848;28;20492;-72
2022/06/13 09:13:07;;;;;;;16.70;13.27;;;18.40;99.90;;;;;;4952353;28;20433;-72
2022/06/13 09:15:42;;;;;;;18.37;13.83;;;18.40;99.90;;;;;;4956996;29;20414;-73
2022/06/13 09:18:10;;;;;;;17.10;13.20;;;18.40;99.90;;;;;;4946354;28;20501;-72
2022/06/13 09:20:55;;;;;;;16.77;12.13;;;18.30;99.90;;;;;;4941712;29;20423;-71
2022/06/13 09:23:44;;;;;;;19.03;12.70;;;18.40;99.90;;;;;;4937564;29;20517;-72
2022/06/13 09:26:17;;;;;;;14.90;11.23;;;18.40;99.90;;;;;;4937724;29;20919;-72
2022/06/13 09:28:55;;;;;;;13.60;9.90;;;18.40;99.90;;;;;;4937578;29;20434;-73
2022/06/13 09:31:32;;;;;;;15.50;9.83;;;18.40;99.90;;;;;;4937383;29;20520;-73
2022/06/13 09:34:18;;;;;;;16.13;10.77;;;18.40;99.90;;;;;;4937806;29;20478;-74
2022/06/13 09:36:52;;;;;;;17.03;10.30;;;18.40;99.90;;;;;;4943244;29;20493;-74
2022/06/13 09:39:18;;;;;;;14.13;10.00;;;18.40;99.90;;;;;;4937562;29;20443;-73
2022/06/13 09:42:08;;;;;;;20.57;10.50;;;18.40;99.90;;;;;;4937387;29;20923;-74
2022/06/13 09:45:06;;;;;;;14.80;10.10;;;18.40;99.90;;;;;;4937236;29;20434;-74
2022/06/13 09:47:51;;;;;;;17.73;8.53;;;18.40;99.90;;;;;;4937369;29;20457;-74
2022/06/13 09:50:20;;;;;;;15.73;7.33;;;18.50;99.90;;;;;;4937154;29;20446;-74
2022/06/13 09:53:15;;;;;;;12.57;7.17;;;18.40;99.90;;;;;;4937277;29;20509;-74
2022/06/13 09:56:01;;;;;;;12.07;6.30;;;18.40;99.90;;;;;;4944173;29;20453;-74
2022/06/13 09:58:40;;;;;;;12.30;6.50;;;18.50;99.90;;;;;;4943569;29;20474;-74
2022/06/13 10:01:14;;;;;;;12.60;6.60;;;18.60;99.90;;;;;;4943230;29;20426;-74
2022/06/13 10:03:52;;;;;;;12.40;5.80;;;18.70;99.90;;;;;;4945227;28;20435;-74
2022/06/13 10:06:40;;;;;;;17.30;5.83;;;18.90;99.90;;;;;;4945263;28;20541;-73
2022/06/13 10:09:08;;;;;;;10.30;5.43;;;18.90;99.90;;;;;;4946515;29;20489;-74
2022/06/13 10:12:06;;;;;;;9.27;5.47;;;19.00;99.90;;;;;;4942269;29;20458;-74
2022/06/13 10:14:49;;;;;;;9.33;5.40;;;19.00;99.90;;;;;;4947217;29;21036;-74
2022/06/13 10:17:36;;;;;;;12.90;5.13;;;19.10;99.90;;;;;;4947300;28;20478;-74
2022/06/13 10:20:23;;;;;;;9.50;4.60;;;19.20;99.90;;;;;;4948194;28;20815;-74
2022/06/13 10:22:54;;;;;;;8.23;4.50;;;19.30;99.90;;;;;;4946703;28;20493;-74
2022/06/13 10:25:44;;;;;;;11.60;4.93;;;19.40;99.90;;;;;;4939923;29;20431;-73
2022/06/13 10:28:39;;;;;;;9.20;4.40;;;19.40;99.90;;;;;;4942506;29;20973;-74
2022/06/13 10:31:41;;;;;;;7.37;3.60;;;19.60;99.90;;;;;;4942019;29;20462;-74
2022/06/13 10:34:38;;;;;;;7.17;3.90;;;19.50;99.90;;;;;;4942131;29;20470;-74
2022/06/13 10:37:20;;;;;;;9.20;3.80;;;19.70;99.90;;;;;;4945483;29;20502;-74
2022/06/13 10:39:50;;;;;;;10.20;4.20;;;19.80;99.90;;;;;;4941817;29;20423;-73
2022/06/13 10:42:20;;;;;;;9.33;2.70;;;19.80;99.90;;;;;;4946235;28;20489;-73
2022/06/13 10:44:46;;;;;;;8.50;2.50;;;19.90;99.90;;;;;;4944244;29;21005;-73
2022/06/13 10:47:29;;;;;;;4.23;3.03;;;20.00;99.90;;;;;;4944551;28;20537;-73
2022/06/13 10:50:01;;;;;;;6.80;3.03;;;20.10;99.90;;;;;;4942957;29;20175;-73
2022/06/13 10:52:37;;;;;;;4.83;3.00;;;20.00;99.90;;;;;;4944374;28;20572;-73
2022/06/13 10:55:08;;;;;;;7.80;4.13;;;20.00;99.90;;;;;;4944580;28;20432;-73
2022/06/13 10:57:43;;;;;;;9.00;3.60;;;20.00;99.90;;;;;;4945910;28;20617;-73
2022/06/13 11:00:24;;;;;;;6.60;3.60;;;20.10;99.90;;;;;;4942531;29;20434;-74
2022/06/13 11:02:53;;;;;;;9.13;3.97;;;20.30;99.90;;;;;;4926104;29;20428;-73
2022/06/13 11:05:25;;;;;;;5.07;2.90;;;20.20;98.60;;;;;;4924926;29;20416;-72
2022/06/13 11:07:58;;;;;;;4.93;2.60;;;20.10;99.00;;;;;;4926414;29;20437;-73
2022/06/13 11:10:37;;;;;;;5.17;3.57;;;20.00;99.90;;;;;;4929395;29;20226;-74
2022/06/13 11:13:11;;;;;;;6.13;3.30;;;20.10;99.20;;;;;;4933110;29;20443;-74
2022/06/13 11:24:51;;;;;;;6.60;2.63;;;20.60;98.60;;;;;;4915086;29;20691;-73
2022/06/13 11:27:42;;;;;;;8.17;3.87;;;20.90;99.90;;;;;;4936120;29;20474;-73
2022/06/13 11:30:41;;;;;;;6.73;3.43;;;21.20;99.90;;;;;;4936259;29;20778;-73
2022/06/13 11:33:09;;;;;;;3.27;2.80;;;21.40;99.90;;;;;;4936073;29;20459;-73
2022/06/13 11:35:37;;;;;;;4.67;2.23;;;21.30;99.90;;;;;;4925147;29;20439;-73
2022/06/13 11:38:22;;;;;;;3.17;2.70;;;21.30;99.90;;;;;;4917226;29;20581;-75
2022/06/13 11:41:05;;;;;;;6.83;2.67;;;21.40;99.90;;;;;;4922957;29;20424;-74
2022/06/13 11:43:45;;;;;;;4.73;2.10;;;21.40;95.20;;;;;;4928594;29;20435;-75
2022/06/13 11:46:35;;;;;;;3.33;2.37;;;21.30;96.40;;;;;;4935939;29;20422;-73
2022/06/13 11:49:16;;;;;;;9.87;2.43;;;21.40;92.20;;;;;;4936102;29;20427;-73
2022/06/13 11:51:59;;;;;;;2.93;1.77;;;21.50;91.90;;;;;;4936021;29;20423;-73
2022/06/13 11:54:38;;;;;;;4.30;1.80;;;21.40;87.60;;;;;;4936130;29;20994;-73
2022/06/13 11:57:18;;;;;;;7.17;2.60;;;21.30;90.10;;;;;;4936001;29;20470;-74
2022/06/13 12:00:12;;;;;;;5.63;2.40;;;21.30;94.70;;;;;;4936025;29;20944;-73
2022/06/13 12:02:49;;;;;;;3.57;2.00;;;21.40;95.30;;;;;;4935989;29;20446;-74
2022/06/13 12:05:38;;;;;;;2.80;1.43;;;21.40;96.20;;;;;;4935923;29;20481;-73
2022/06/13 12:08:07;;;;;;;3.53;2.60;;;21.30;94.60;;;;;;4935926;29;20435;-73
2022/06/13 12:10:38;;;;;;;3.40;1.90;;;21.10;96.70;;;;;;4935948;29;20959;-73
2022/06/13 12:13:13;;;;;;;4.83;2.10;;;21.00;96.00;;;;;;4945076;29;20521;-73
2022/06/13 12:15:48;;;;;;;4.90;2.07;;;21.00;98.10;;;;;;4949076;28;20430;-75
2022/06/13 12:18:27;;;;;;;1.53;1.43;;;21.30;95.40;;;;;;4937993;29;20481;-74
2022/06/13 12:21:04;;;;;;;5.00;2.37;;;21.40;94.10;;;;;;4935810;29;20509;-74
2022/06/13 12:24:08;;;;;;;5.77;2.67;;;21.50;92.90;;;;;;4918575;29;20438;-73
2022/06/13 12:26:37;;;;;;;2.37;1.60;;;21.40;92.50;;;;;;4938449;29;20470;-72
2022/06/13 12:29:32;;;;;;;4.20;1.90;;;21.30;91.70;;;;;;4945039;28;20474;-74
2022/06/13 12:32:10;;;;;;;5.37;2.03;;;21.10;91.10;;;;;;4945990;29;20470;-78
2022/06/13 12:34:59;;;;;;;3.93;1.60;;;20.80;90.30;;;;;;4916537;29;20463;-74
2022/06/13 12:37:55;;;;;;;2.47;1.50;;;20.50;91.30;;;;;;4916022;29;20467;-76
2022/06/13 12:40:26;;;;;;;4.17;1.80;;;20.50;92.50;;;;;;4916487;29;20515;-76
2022/06/13 12:43:05;;;;;;;5.27;1.73;;;20.40;92.20;;;;;;4915937;29;20560;-76
2022/06/13 12:45:47;;;;;;;4.80;1.57;;;20.30;90.70;;;;;;4920091;29;20436;-76
2022/06/13 12:48:20;;;;;;;1.93;1.20;;;20.30;91.00;;;;;;4920232;29;20428;-76
2022/06/13 12:51:11;;;;;;;4.67;1.77;;;20.20;91.80;;;;;;4920198;29;20439;-76
2022/06/13 12:53:55;;;;;;;3.93;1.40;;;20.20;92.20;;;;;;4920199;29;20526;-75
2022/06/13 12:56:46;;;;;;;2.03;1.20;;;20.50;92.30;;;;;;4918880;29;20935;-75
2022/06/13 12:59:27;;;;;;;5.03;1.70;;;20.70;91.80;;;;;;4920042;29;20509;-75
2022/06/13 13:02:09;;;;;;;5.73;1.80;;;20.90;92.30;;;;;;4919954;29;20427;-75
2022/06/13 13:05:01;;;;;;;4.73;1.47;;;21.10;90.80;;;;;;4920013;29;20449;-75
2022/06/13 13:08:02;;;;;;;5.60;1.40;;;21.10;90.40;;;;;;4919924;29;20436;-75
2022/06/13 13:10:45;;;;;;;4.57;1.20;;;21.20;83.60;;;;;;4877701;29;20496;-75
2022/06/13 13:13:29;;;;;;;8.30;1.53;;;21.50;86.50;;;;;;4919839;29;20831;-75
2022/06/13 13:16:03;;;;;;;5.00;1.30;;;21.60;85.10;;;;;;4919228;29;20436;-75
2022/06/13 13:19:05;;;;;;;7.40;1.27;;;22.00;81.20;;;;;;4918584;29;20557;-75
2022/06/13 13:21:42;;;;;;;5.53;1.30;;;22.00;80.20;;;;;;4918835;29;20464;-75
2022/06/13 13:24:26;;;;;;;4.20;1.97;;;21.70;81.10;;;;;;4918670;29;20436;-75
2022/06/13 13:27:07;;;;;;;3.63;1.40;;;21.30;79.70;;;;;;4918562;29;20431;-75
2022/06/13 13:30:10;;;;;;;3.07;1.50;;;21.30;84.30;;;;;;4918736;29;20434;-75
2022/06/13 13:32:57;;;;;;;2.30;1.30;;;21.60;84.90;;;;;;4918682;29;20493;-75
2022/06/13 13:35:46;;;;;;;5.87;1.30;;;21.70;81.60;;;;;;4918641;29;20434;-75
2022/06/13 13:38:21;;;;;;;1.63;1.10;;;22.00;78.00;;;;;;4918507;29;20963;-75
2022/06/13 13:40:49;;;;;;;3.50;1.10;;;22.20;76.70;;;;;;4918411;29;20427;-75
2022/06/13 13:43:39;;;;;;;4.33;1.50;;;22.30;75.60;;;;;;4918392;29;20858;-75
2022/06/13 13:46:14;;;;;;;4.87;2.10;;;22.40;81.60;;;;;;4918191;29;20440;-75
2022/06/13 13:48:51;;;;;;;7.83;1.47;;;22.30;82.10;;;;;;4918463;29;20415;-75
2022/06/13 13:51:42;;;;;;;3.63;1.30;;;22.00;81.30;;;;;;4918364;29;20438;-75
2022/06/13 13:54:32;;;;;;;6.20;1.50;;;22.10;85.80;;;;;;4918269;29;20511;-75
2022/06/13 13:57:14;;;;;;;2.83;1.10;;;22.20;81.90;;;;;;4918253;29;20456;-74
2022/06/13 13:59:46;;;;;;;4.00;1.83;;;22.30;81.00;;;;;;4918230;29;20428;-74
2022/06/13 14:02:20;;;;;;;2.80;1.23;;;22.50;81.80;;;;;;4918139;29;20768;-74
2022/06/13 14:04:51;;;;;;;2.90;1.17;;;22.50;77.50;;;;;;4918095;29;20435;-75
2022/06/13 14:07:41;;;;;;;3.33;1.43;;;22.50;76.50;;;;;;4918143;29;20551;-75
2022/06/13 14:10:09;;;;;;;3.43;1.40;;;22.70;80.20;;;;;;4918037;29;21536;-75
2022/06/13 14:12:58;;;;;;;3.67;1.40;;;22.60;74.20;;;;;;4917858;29;20424;-75
2022/06/13 14:15:50;;;;;;;3.00;1.37;;;22.80;75.60;;;;;;4917996;29;20471;-75
2022/06/13 14:18:21;;;;;;;3.73;1.07;;;22.80;73.90;;;;;;4917818;29;20566;-75
2022/06/13 14:20:47;;;;;;;3.90;1.40;;;22.80;76.60;;;;;;4917912;29;20863;-74
2022/06/13 14:23:18;;;;;;;2.10;1.30;;;22.70;71.70;;;;;;4917729;29;20436;-75
2022/06/13 14:25:45;;;;;;;3.57;1.23;;;22.70;70.20;;;;;;4917770;29;20424;-75
2022/06/13 14:28:21;;;;;;;1.93;1.23;;;22.60;70.30;;;;;;4917716;29;20432;-75
2022/06/13 14:31:04;;;;;;;2.20;1.03;;;22.70;70.70;;;;;;4917495;29;20463;-74
2022/06/13 14:36:50;;;;;;;4.03;1.40;;;22.90;66.60;;;;;;4917660;29;21049;-75
2022/06/13 14:39:45;;;;;;;6.07;1.47;;;22.70;68.60;;;;;;4917502;29;20879;-75
2022/06/13 14:42:17;;;;;;;2.67;1.43;;;22.60;70.10;;;;;;4910717;29;20854;-75
2022/06/13 14:44:51;;;;;;;3.30;1.43;;;22.50;67.60;;;;;;4917378;29;20432;-74
2022/06/13 14:47:35;;;;;;;3.80;1.20;;;22.40;68.00;;;;;;4917519;29;20880;-75
2022/06/13 14:50:01;;;;;;;6.33;1.30;;;22.40;69.20;;;;;;4917303;29;20801;-75
2022/06/13 14:52:31;;;;;;;2.80;1.30;;;22.30;68.70;;;;;;4917262;29;20444;-75
2022/06/13 14:55:02;;;;;;;2.70;1.00;;;22.10;67.20;;;;;;4917109;29;20522;-75
2022/06/13 14:57:27;;;;;;;1.80;1.03;;;22.10;68.40;;;;;;4916928;29;20529;-75
2022/06/13 15:00:15;;;;;;;1.90;1.40;;;22.20;65.50;;;;;;4916995;29;20511;-75
2022/06/13 15:02:59;;;;;;;3.77;1.20;;;22.10;66.30;;;;;;4917041;29;20192;-75
2022/06/13 15:05:30;;;;;;;7.60;1.40;;;22.00;66.10;;;;;;4917133;29;20435;-75
2022/06/13 15:08:11;;;;;;;3.83;1.80;;;22.10;68.70;;;;;;4916426;29;20515;-75
2022/06/13 15:10:49;;;;;;;4.20;1.77;;;22.20;67.70;;;;;;4916937;29;20431;-75
2022/06/13 15:13:36;;;;;;;4.63;1.50;;;22.30;67.10;;;;;;4916160;29;20515;-74
2022/06/13 15:16:05;;;;;;;6.00;1.47;;;22.50;66.00;;;;;;4917271;29;20765;-75
2022/06/13 15:18:33;;;;;;;5.57;1.10;;;22.50;66.30;;;;;;4916056;29;20475;-75
2022/06/13 15:21:02;;;;;;;2.53;1.00;;;22.60;65.50;;;;;;4917493;29;20428;-75
2022/06/13 15:23:30;;;;;;;2.37;1.20;;;22.60;66.90;;;;;;4917699;29;20436;-74
2022/06/13 15:25:55;;;;;;;1.40;1.17;;;22.70;68.00;;;;;;4917341;29;20950;-75
2022/06/13 15:28:23;;;;;;;1.50;1.00;;;22.50;63.60;;;;;;4917316;29;20535;-75
2022/06/13 15:31:07;;;;;;;4.80;1.77;;;22.30;65.60;;;;;;4917076;29;20228;-78
2022/06/13 15:33:33;;;;;;;2.83;1.60;;;22.10;65.00;;;;;;4917217;29;20939;-76
2022/06/13 15:36:01;;;;;;;2.60;1.20;;;22.00;65.70;;;;;;4946616;29;20426;-77
2022/06/13 15:38:33;;;;;;;2.60;1.60;;;21.80;66.70;;;;;;4955204;28;20481;-76
2022/06/13 15:41:01;;;;;;;4.77;1.60;;;21.70;66.30;;;;;;4955191;28;20941;-76
2022/06/13 15:43:32;;;;;;;4.63;1.20;;;21.70;66.40;;;;;;4946747;28;20451;-76
2022/06/13 15:45:58;;;;;;;2.57;1.10;;;21.80;67.60;;;;;;4944680;28;20972;-79
2022/06/13 15:48:25;;;;;;;4.30;1.53;;;22.00;68.00;;;;;;4946377;29;20500;-76
2022/06/13 15:51:18;;;;;;;2.47;1.63;;;22.10;66.20;;;;;;4944885;29;20807;-74
2022/06/13 15:53:45;;;;;;;4.43;1.20;;;22.30;69.40;;;;;;4945949;29;20955;-71
2022/06/13 15:56:33;;;;;;;2.60;1.60;;;22.40;67.30;;;;;;4936029;29;20431;-76
2022/06/13 15:59:05;;;;;;;4.10;1.47;;;22.20;64.60;;;;;;4935690;29;20541;-73
2022/06/13 16:01:52;;;;;;;2.07;1.13;;;22.30;67.20;;;;;;4935987;29;20423;-77
2022/06/13 16:04:21;;;;;;;4.23;1.70;;;22.40;63.30;;;;;;4935976;29;20431;-76
2022/06/13 16:06:56;;;;;;;2.60;1.50;;;22.40;66.70;;;;;;4935918;29;20792;-77
2022/06/13 16:09:26;;;;;;;3.03;1.30;;;22.50;65.30;;;;;;4935659;29;20434;-77
2022/06/13 16:12:05;;;;;;;2.90;1.50;;;22.30;64.30;;;;;;4935728;29;20919;-78
2022/06/13 16:14:33;;;;;;;2.30;1.40;;;22.00;65.30;;;;;;4935895;29;20830;-75
2022/06/13 16:17:02;;;;;;;9.60;1.73;;;21.90;65.40;;;;;;4935654;29;20458;-75
2022/06/13 16:19:32;;;;;;;2.60;1.20;;;21.90;68.00;;;;;;4937798;29;20466;-74
2022/06/13 16:22:03;;;;;;;3.40;1.50;;;22.00;66.80;;;;;;4939733;29;20481;-74
2022/06/13 16:24:32;;;;;;;1.80;1.10;;;21.90;65.80;;;;;;4939813;29;20779;-75
2022/06/13 16:26:59;;;;;;;5.23;1.70;;;21.80;66.40;;;;;;4939622;29;20423;-74
2022/06/13 16:29:25;;;;;;;3.53;1.40;;;21.80;65.90;;;;;;4939656;29;20491;-77
2022/06/13 16:31:51;;;;;;;3.17;1.53;;;21.60;66.00;;;;;;4939465;29;20828;-76
2022/06/13 16:34:22;;;;;;;3.33;1.70;;;21.60;65.80;;;;;;4939636;29;20423;-76
2022/06/13 16:36:51;;;;;;;5.97;1.73;;;21.50;66.00;;;;;;4939539;29;20618;-74
2022/06/13 16:39:22;;;;;;;2.27;1.50;;;21.50;66.20;;;;;;4939368;29;20443;-71